Time;durP1;ratioP1;P1;durP2;ratioP2;P2;SDS_P1;SDS_P2;PMS_P1;PMS_P2;Temp;Humidity;BMP_temperature;BMP_pressure;BME280_temperature;BME280_humidity;BME280_pressure;Samples;Min_cycle;Max_cycle;Signal;HPM_P1;HPM_P2
2021/06/11 00:00:46;;;;;;;1.80;1.30;;;15.00;91.80;;;;;;4926725;29;20063;-72
2021/06/11 00:03:14;;;;;;;1.55;1.23;;;15.40;91.90;;;;;;4929118;29;20099;-68
2021/06/11 00:05:42;;;;;;;1.52;1.10;;;15.60;90.60;;;;;;4929210;29;20118;-70
2021/06/11 00:08:09;;;;;;;1.92;1.50;;;15.50;90.10;;;;;;4924160;29;20049;-70
2021/06/11 00:10:37;;;;;;;1.85;1.45;;;16.00;88.10;;;;;;4925293;29;20482;-70
2021/06/11 00:13:06;;;;;;;2.13;1.20;;;16.30;89.60;;;;;;4928912;29;20487;-70
2021/06/11 00:15:33;;;;;;;2.55;1.05;;;16.60;87.80;;;;;;4927204;29;20066;-70
2021/06/11 00:18:01;;;;;;;2.50;1.17;;;17.10;85.70;;;;;;4928632;29;20091;-72
2021/06/11 00:20:28;;;;;;;1.60;1.10;;;17.50;84.40;;;;;;4926424;29;20036;-73
2021/06/11 00:22:56;;;;;;;2.00;1.20;;;17.90;81.10;;;;;;4925219;29;20095;-70
2021/06/11 00:25:25;;;;;;;1.77;1.40;;;17.50;82.50;;;;;;4924961;29;20031;-72
2021/06/11 00:27:54;;;;;;;1.60;1.15;;;17.30;81.50;;;;;;4926741;29;20027;-73
2021/06/11 00:30:23;;;;;;;2.15;1.20;;;17.70;82.80;;;;;;4926944;29;20028;-72
2021/06/11 00:32:52;;;;;;;4.20;2.13;;;17.90;80.50;;;;;;4930160;29;20063;-73
2021/06/11 00:35:19;;;;;;;4.00;2.22;;;17.30;83.10;;;;;;4927425;29;20031;-73
2021/06/11 00:37:47;;;;;;;3.20;1.77;;;16.90;83.00;;;;;;4929603;29;20028;-72
2021/06/11 00:40:15;;;;;;;2.53;1.73;;;17.00;85.40;;;;;;4924282;29;20032;-72
2021/06/11 00:42:43;;;;;;;3.65;2.08;;;17.50;81.60;;;;;;4924600;29;20030;-72
2021/06/11 00:45:13;;;;;;;1.77;1.40;;;18.40;81.80;;;;;;4924293;29;20031;-71
2021/06/11 00:47:40;;;;;;;2.65;1.25;;;18.40;79.80;;;;;;4922987;29;20028;-72
2021/06/11 00:50:09;;;;;;;3.08;1.42;;;17.90;80.20;;;;;;4912860;29;20106;-70
2021/06/11 00:52:38;;;;;;;1.70;1.30;;;17.70;79.70;;;;;;4927809;29;20043;-72
2021/06/11 00:55:06;;;;;;;1.95;1.05;;;17.20;84.10;;;;;;4921706;29;20032;-72
2021/06/11 00:57:34;;;;;;;0.52;0.40;;;17.40;82.70;;;;;;4926021;29;20035;-72
2021/06/11 01:00:01;;;;;;;0.93;0.60;;;17.60;78.70;;;;;;4927334;29;20397;-73
2021/06/11 01:02:28;;;;;;;0.98;0.57;;;18.10;78.50;;;;;;4926645;29;20074;-72
2021/06/11 01:04:56;;;;;;;1.30;0.63;;;18.60;75.60;;;;;;4924122;29;20024;-72
2021/06/11 01:07:24;;;;;;;1.02;0.40;;;19.00;78.30;;;;;;4927479;29;20032;-72
2021/06/11 01:09:54;;;;;;;0.77;0.60;;;19.70;80.50;;;;;;4910272;29;20024;-72
2021/06/11 01:12:21;;;;;;;1.35;0.50;;;20.40;75.30;;;;;;4922148;29;20114;-72
2021/06/11 01:14:49;;;;;;;0.93;0.60;;;20.70;72.90;;;;;;4927277;29;20024;-73
2021/06/11 01:17:16;;;;;;;0.60;0.25;;;21.20;73.30;;;;;;4925347;29;20032;-73
2021/06/11 01:19:46;;;;;;;0.60;0.40;;;21.00;68.00;;;;;;4926138;29;20039;-72
2021/06/11 01:22:57;;;;;;;0.93;0.32;;;20.70;66.90;;;;;;4908575;29;20118;-72
2021/06/11 01:25:35;;;;;;;0.70;0.40;;;21.10;70.10;;;;;;4923919;29;20023;-71
2021/06/11 01:28:06;;;;;;;0.98;0.35;;;21.10;66.40;;;;;;4929549;29;20043;-70
2021/06/11 01:30:34;;;;;;;0.20;0.20;;;20.60;68.30;;;;;;4926768;29;20106;-72
2021/06/11 01:33:03;;;;;;;0.25;0.25;;;20.30;67.90;;;;;;4928809;29;20036;-71
2021/06/11 01:36:00;;;;;;;0.50;0.40;;;20.50;67.20;;;;;;4926173;29;20094;-72
2021/06/11 01:38:36;;;;;;;1.45;0.20;;;20.40;67.40;;;;;;4926723;29;20036;-72
2021/06/11 01:41:09;;;;;;;0.20;0.20;;;19.70;70.80;;;;;;4925928;29;20048;-71
2021/06/11 01:43:39;;;;;;;0.80;0.30;;;19.60;71.70;;;;;;4923212;29;20107;-71
2021/06/11 01:46:11;;;;;;;1.05;0.22;;;19.70;71.10;;;;;;4919411;29;20446;-70
2021/06/11 01:48:42;;;;;;;0.38;0.20;;;19.90;73.60;;;;;;4925122;29;20087;-70
2021/06/11 01:51:12;;;;;;;0.40;0.30;;;19.90;71.90;;;;;;4922114;29;20031;-70
2021/06/11 01:53:42;;;;;;;0.40;0.32;;;20.40;70.20;;;;;;4927685;29;20031;-70
2021/06/11 01:56:13;;;;;;;0.45;0.30;;;19.80;71.40;;;;;;4924843;29;20072;-71
2021/06/11 01:58:43;;;;;;;0.63;0.35;;;20.30;72.20;;;;;;4929047;29;20040;-70
2021/06/11 02:01:16;;;;;;;1.08;0.30;;;20.40;70.90;;;;;;4919859;28;20083;-69
2021/06/11 02:03:46;;;;;;;1.52;0.40;;;20.80;69.60;;;;;;4921874;29;20110;-70
2021/06/11 02:06:20;;;;;;;0.20;0.20;;;20.90;69.70;;;;;;4922938;29;20020;-70
2021/06/11 02:08:52;;;;;;;0.25;0.20;;;21.30;70.70;;;;;;4924822;29;20157;-69
2021/06/11 02:11:21;;;;;;;0.20;0.20;;;21.20;67.00;;;;;;4921351;29;20647;-71
2021/06/11 02:13:51;;;;;;;0.43;0.43;;;20.70;67.50;;;;;;4922572;29;20023;-69
2021/06/11 02:16:21;;;;;;;1.15;0.28;;;20.70;67.20;;;;;;4924643;29;20550;-70
2021/06/11 02:18:49;;;;;;;1.23;0.43;;;21.20;71.40;;;;;;4923984;29;20024;-68
2021/06/11 02:21:18;;;;;;;1.40;0.20;;;21.60;67.40;;;;;;4924285;29;20039;-70
2021/06/11 02:23:46;;;;;;;0.20;0.20;;;21.00;65.70;;;;;;4921763;29;20042;-69
2021/06/11 02:26:15;;;;;;;0.52;0.43;;;20.30;69.90;;;;;;4924973;29;20411;-69
2021/06/11 02:28:43;;;;;;;0.30;0.20;;;19.30;71.10;;;;;;4921767;29;20406;-68
2021/06/11 02:31:11;;;;;;;1.98;0.20;;;19.10;73.60;;;;;;4921307;29;20106;-70
2021/06/11 02:33:39;;;;;;;0.47;0.47;;;19.60;71.20;;;;;;4923132;29;20047;-70
2021/06/11 02:36:07;;;;;;;0.25;0.20;;;20.10;70.70;;;;;;4925715;29;20032;-70
2021/06/11 02:38:34;;;;;;;0.35;0.20;;;20.10;69.80;;;;;;4923920;29;20402;-71
2021/06/11 02:41:02;;;;;;;0.52;0.28;;;20.20;74.30;;;;;;4929678;29;20031;-71
2021/06/11 02:43:32;;;;;;;0.30;0.20;;;19.20;71.80;;;;;;4925886;29;20187;-71
2021/06/11 02:46:24;;;;;;;0.40;0.20;;;18.20;74.10;;;;;;4922218;29;20039;-70
2021/06/11 02:48:55;;;;;;;0.15;0.13;;;17.80;77.50;;;;;;4924606;29;20483;-70
2021/06/11 02:51:43;;;;;;;0.40;0.30;;;17.70;76.00;;;;;;4921445;29;21378;-71
2021/06/11 02:54:32;;;;;;;0.40;0.28;;;17.60;79.80;;;;;;4922256;29;20034;-70
2021/06/11 02:57:03;;;;;;;0.20;0.10;;;18.00;78.90;;;;;;4918626;29;20032;-71
2021/06/11 02:59:39;;;;;;;0.22;0.20;;;18.10;75.90;;;;;;4920469;29;20110;-70
2021/06/11 03:02:11;;;;;;;;;;;17.80;75.70;;;;;;4923929;29;20512;-70
2021/06/11 03:04:46;;;;;;;0.13;0.13;;;17.70;78.20;;;;;;4926172;29;20030;-71
2021/06/11 03:07:27;;;;;;;0.17;0.15;;;17.90;78.70;;;;;;4924533;29;20024;-70
2021/06/11 03:10:07;;;;;;;0.60;0.20;;;17.80;76.30;;;;;;4924907;29;20479;-72
2021/06/11 03:12:38;;;;;;;0.43;0.10;;;17.30;78.90;;;;;;4921504;29;20049;-71
2021/06/11 03:15:07;;;;;;;0.43;0.20;;;17.00;79.20;;;;;;4925178;29;20043;-71
2021/06/11 03:17:55;;;;;;;0.63;0.20;;;16.90;80.00;;;;;;4924070;29;20550;-71
2021/06/11 03:20:27;;;;;;;0.40;0.20;;;16.90;81.70;;;;;;4921692;29;20080;-71
2021/06/11 03:23:11;;;;;;;0.40;0.20;;;17.00;80.00;;;;;;4927480;29;20035;-71
2021/06/11 03:25:55;;;;;;;0.63;0.20;;;17.10;79.50;;;;;;4926181;29;20812;-73
2021/06/11 03:28:32;;;;;;;0.70;0.20;;;17.30;80.30;;;;;;4918614;29;20483;-73
2021/06/11 03:31:02;;;;;;;0.25;0.10;;;17.20;79.70;;;;;;4929766;29;20024;-74
2021/06/11 03:33:37;;;;;;;0.57;0.20;;;17.10;80.40;;;;;;4928727;29;20036;-73
2021/06/11 03:36:21;;;;;;;1.33;0.15;;;16.80;79.80;;;;;;4924345;29;20510;-72
2021/06/11 03:38:57;;;;;;;0.25;0.15;;;16.80;80.50;;;;;;4927358;29;20043;-72
2021/06/11 03:41:24;;;;;;;;;;;16.60;80.10;;;;;;4929492;29;20063;-72
2021/06/11 03:43:53;;;;;;;0.45;0.20;;;16.50;81.30;;;;;;4930384;29;19910;-72
2021/06/11 03:46:21;;;;;;;0.20;0.10;;;16.50;81.40;;;;;;4928420;29;20095;-73
2021/06/11 03:48:53;;;;;;;0.25;0.20;;;16.50;82.30;;;;;;4930946;29;20027;-71
2021/06/11 03:51:21;;;;;;;0.10;0.10;;;16.40;82.50;;;;;;4930321;29;20106;-72
2021/06/11 03:53:50;;;;;;;0.60;0.17;;;16.50;80.80;;;;;;4926631;29;20038;-72
2021/06/11 03:56:20;;;;;;;0.50;0.10;;;16.40;81.90;;;;;;4925442;29;20110;-71
2021/06/11 03:58:50;;;;;;;0.10;0.10;;;16.60;82.80;;;;;;4927566;29;20046;-71
2021/06/11 04:01:28;;;;;;;0.10;0.10;;;16.50;80.70;;;;;;4925714;29;20079;-74
2021/06/11 04:03:56;;;;;;;0.20;0.10;;;16.60;82.10;;;;;;4922004;29;20039;-74
2021/06/11 04:06:55;;;;;;;0.20;0.10;;;16.80;82.00;;;;;;4929513;29;20028;-72
2021/06/11 04:09:30;;;;;;;3.70;0.28;;;17.30;81.50;;;;;;4910640;29;20039;-73
2021/06/11 04:12:07;;;;;;;;;;;17.50;80.70;;;;;;4929641;29;20090;-73
2021/06/11 04:14:54;;;;;;;0.55;0.20;;;17.60;80.00;;;;;;4922965;29;19915;-72
2021/06/11 04:17:26;;;;;;;1.05;0.20;;;17.50;78.60;;;;;;4929744;29;20024;-72
2021/06/11 04:19:59;;;;;;;0.40;0.10;;;17.40;78.50;;;;;;4927564;29;20427;-71
2021/06/11 04:22:31;;;;;;;0.03;0.03;;;17.30;79.40;;;;;;4929946;29;20039;-71
2021/06/11 04:25:00;;;;;;;0.20;0.00;;;17.20;77.60;;;;;;4925890;29;20028;-71
2021/06/11 04:27:29;;;;;;;0.20;0.10;;;16.90;78.70;;;;;;4929104;29;20078;-71
2021/06/11 04:29:57;;;;;;;0.10;0.10;;;16.80;79.20;;;;;;4926043;29;20048;-72
2021/06/11 04:32:28;;;;;;;0.17;0.00;;;16.80;79.30;;;;;;4925324;29;20047;-72
2021/06/11 04:34:58;;;;;;;0.20;0.10;;;16.90;80.30;;;;;;4925855;29;20074;-71
2021/06/11 04:37:26;;;;;;;0.10;0.10;;;16.90;78.90;;;;;;4928826;29;20122;-71
2021/06/11 04:39:54;;;;;;;0.10;0.10;;;16.90;80.30;;;;;;4927890;29;20039;-73
2021/06/11 04:42:21;;;;;;;0.10;0.10;;;16.80;81.10;;;;;;4930569;29;20125;-73
2021/06/11 04:44:48;;;;;;;0.10;0.10;;;16.80;81.90;;;;;;4928093;29;20023;-73
2021/06/11 04:47:16;;;;;;;0.77;0.38;;;16.90;82.80;;;;;;4927143;29;20031;-71
2021/06/11 04:49:43;;;;;;;0.10;0.10;;;16.80;82.00;;;;;;4903401;29;20440;-72
2021/06/11 04:52:11;;;;;;;0.13;0.10;;;16.80;81.30;;;;;;4925302;29;20032;-72
2021/06/11 04:54:38;;;;;;;0.28;0.10;;;16.80;81.70;;;;;;4931092;29;20036;-73
2021/06/11 04:57:06;;;;;;;0.10;0.10;;;16.80;81.70;;;;;;4929208;29;20058;-72
2021/06/11 04:59:33;;;;;;;2.30;1.00;;;16.90;81.40;;;;;;4929015;29;20062;-70
2021/06/11 05:02:01;;;;;;;9.15;4.13;;;16.90;81.50;;;;;;4930661;29;20126;-73
2021/06/11 05:04:28;;;;;;;1.20;0.60;;;16.80;81.20;;;;;;4925377;29;20024;-71
2021/06/11 05:06:56;;;;;;;0.70;0.50;;;16.90;80.80;;;;;;4925446;29;20059;-71
2021/06/11 05:09:23;;;;;;;2.92;0.90;;;16.90;81.00;;;;;;4924405;29;20131;-73
2021/06/11 05:11:51;;;;;;;1.10;0.43;;;16.80;80.80;;;;;;4926365;29;20391;-73
2021/06/11 05:14:18;;;;;;;0.10;0.10;;;16.70;80.10;;;;;;4922333;29;20395;-71
2021/06/11 05:16:46;;;;;;;1.08;0.20;;;16.70;80.50;;;;;;4928241;29;20856;-70
2021/06/11 05:19:14;;;;;;;3.42;1.38;;;16.70;80.70;;;;;;4927860;29;20028;-73
2021/06/11 05:21:41;;;;;;;0.40;0.25;;;16.70;79.80;;;;;;4926618;29;20043;-70
2021/06/11 05:24:09;;;;;;;0.98;0.40;;;16.70;80.70;;;;;;4920677;28;20043;-73
2021/06/11 05:26:36;;;;;;;0.22;0.10;;;16.70;81.90;;;;;;4926438;29;20039;-72
2021/06/11 05:29:04;;;;;;;0.20;0.10;;;16.80;81.80;;;;;;4922748;29;20114;-72
2021/06/11 05:31:31;;;;;;;0.10;0.10;;;16.70;80.90;;;;;;4928746;29;20032;-74
2021/06/11 05:33:59;;;;;;;0.17;0.10;;;16.70;80.60;;;;;;4927965;29;20032;-72
2021/06/11 05:36:26;;;;;;;0.00;0.00;;;16.60;80.80;;;;;;4922036;29;20070;-72
2021/06/11 05:38:54;;;;;;;1.52;0.20;;;16.60;81.00;;;;;;4926635;29;20040;-72
2021/06/11 05:41:21;;;;;;;0.22;0.13;;;16.60;81.60;;;;;;4930951;29;20046;-71
2021/06/11 05:43:51;;;;;;;0.35;0.20;;;16.60;82.40;;;;;;4926810;29;20111;-70
2021/06/11 05:46:20;;;;;;;0.50;0.20;;;16.50;82.10;;;;;;4920164;29;20019;-72
2021/06/11 05:48:49;;;;;;;0.25;0.17;;;16.40;81.90;;;;;;4923041;29;20035;-71
2021/06/11 05:51:16;;;;;;;0.30;0.20;;;16.40;82.90;;;;;;4926093;29;20097;-71
2021/06/11 05:53:44;;;;;;;1.20;0.30;;;16.40;83.10;;;;;;4920566;29;21881;-71
2021/06/11 05:56:12;;;;;;;0.70;0.20;;;16.30;82.10;;;;;;4927334;29;20078;-71
2021/06/11 05:58:40;;;;;;;0.22;0.10;;;16.20;82.60;;;;;;4924130;29;20028;-72
2021/06/11 06:01:07;;;;;;;0.68;0.40;;;16.20;81.90;;;;;;4926376;29;20103;-71
2021/06/11 06:03:35;;;;;;;1.20;0.93;;;16.20;82.60;;;;;;4926604;29;20042;-73
2021/06/11 06:06:04;;;;;;;1.40;0.80;;;16.20;81.60;;;;;;4923406;29;20032;-71
2021/06/11 06:08:32;;;;;;;0.60;0.40;;;16.20;81.40;;;;;;4927679;29;20051;-71
2021/06/11 06:10:59;;;;;;;0.20;0.20;;;16.20;81.50;;;;;;4922385;29;20036;-71
2021/06/11 06:13:26;;;;;;;0.98;0.30;;;16.20;81.10;;;;;;4925346;29;20111;-71
2021/06/11 06:15:54;;;;;;;0.40;0.20;;;16.10;81.10;;;;;;4917699;29;20071;-71
2021/06/11 06:18:22;;;;;;;0.65;0.28;;;16.20;82.70;;;;;;4926693;29;20035;-71
2021/06/11 06:20:49;;;;;;;0.65;0.20;;;16.20;82.40;;;;;;4924162;29;20024;-70
2021/06/11 06:23:17;;;;;;;0.13;0.10;;;16.10;81.60;;;;;;4923057;29;20074;-69
2021/06/11 06:25:44;;;;;;;0.20;0.10;;;16.10;82.20;;;;;;4923554;29;20039;-70
2021/06/11 06:28:12;;;;;;;0.75;0.30;;;16.20;81.60;;;;;;4924520;29;20396;-74
2021/06/11 06:30:39;;;;;;;0.43;0.20;;;16.20;81.80;;;;;;4922725;29;20027;-70
2021/06/11 06:33:07;;;;;;;0.10;0.10;;;16.20;81.50;;;;;;4922026;29;20090;-72
2021/06/11 06:35:34;;;;;;;0.40;0.20;;;16.10;81.00;;;;;;4919094;29;20072;-72
2021/06/11 06:38:02;;;;;;;0.25;0.20;;;15.90;81.80;;;;;;4926052;29;20031;-72
2021/06/11 06:40:29;;;;;;;0.20;0.05;;;15.70;81.20;;;;;;4921141;29;20283;-68
2021/06/11 06:42:56;;;;;;;0.88;0.10;;;15.70;80.90;;;;;;4924884;29;20122;-72
2021/06/11 06:45:24;;;;;;;0.00;0.00;;;15.60;81.30;;;;;;4922375;29;20027;-71
2021/06/11 06:47:51;;;;;;;0.10;0.10;;;15.50;81.00;;;;;;4924065;29;20474;-71
2021/06/11 06:50:21;;;;;;;0.10;0.10;;;15.50;81.40;;;;;;4923916;29;20043;-73
2021/06/11 06:52:54;;;;;;;0.65;0.32;;;15.40;82.00;;;;;;4927077;29;20115;-72
2021/06/11 06:55:24;;;;;;;0.20;0.20;;;15.40;81.90;;;;;;4905723;29;20435;-71
2021/06/11 06:57:51;;;;;;;0.95;0.28;;;15.40;81.70;;;;;;4926075;29;20034;-73
2021/06/11 07:00:19;;;;;;;0.28;0.20;;;15.40;82.00;;;;;;4923167;29;20055;-70
2021/06/11 07:02:46;;;;;;;0.32;0.20;;;15.30;82.60;;;;;;4922228;29;20044;-70
2021/06/11 07:05:17;;;;;;;0.70;0.20;;;15.20;82.60;;;;;;4922036;29;20028;-74
2021/06/11 07:07:44;;;;;;;0.40;0.35;;;15.20;83.50;;;;;;4923926;29;20050;-73
2021/06/11 07:10:12;;;;;;;2.72;0.82;;;15.10;82.80;;;;;;4926898;29;20034;-71
2021/06/11 07:12:42;;;;;;;3.97;1.45;;;15.10;83.00;;;;;;4925901;29;20376;-72
2021/06/11 07:15:10;;;;;;;2.90;0.90;;;15.00;83.40;;;;;;4925762;29;20057;-71
2021/06/11 07:17:38;;;;;;;2.45;1.30;;;14.90;83.70;;;;;;4934802;29;20107;-70
2021/06/11 07:20:07;;;;;;;1.67;1.05;;;14.90;83.40;;;;;;4925103;29;20032;-71
2021/06/11 07:22:35;;;;;;;1.55;0.85;;;14.80;83.60;;;;;;4928049;29;20051;-71
2021/06/11 07:25:05;;;;;;;1.67;0.65;;;14.80;84.20;;;;;;4927500;29;20074;-70
2021/06/11 07:27:34;;;;;;;0.70;0.35;;;14.80;84.00;;;;;;4927010;29;20150;-70
2021/06/11 07:30:09;;;;;;;1.90;0.52;;;14.80;84.00;;;;;;4925274;29;20483;-69
2021/06/11 07:32:37;;;;;;;0.90;0.60;;;14.80;84.80;;;;;;4926653;29;20032;-70
2021/06/11 07:35:05;;;;;;;0.45;0.30;;;14.70;84.30;;;;;;4926072;29;20044;-72
2021/06/11 07:37:32;;;;;;;0.43;0.25;;;14.80;84.10;;;;;;4927542;29;20034;-71
2021/06/11 07:40:00;;;;;;;0.55;0.30;;;14.80;84.40;;;;;;4925387;29;20656;-68
2021/06/11 07:42:27;;;;;;;0.45;0.20;;;14.80;84.60;;;;;;4926268;29;20050;-72
2021/06/11 07:44:54;;;;;;;0.68;0.25;;;14.80;86.40;;;;;;4926566;29;20020;-71
2021/06/11 07:47:22;;;;;;;1.35;0.70;;;14.70;85.70;;;;;;4925919;29;20122;-70
2021/06/11 07:49:49;;;;;;;1.65;0.73;;;14.70;85.50;;;;;;4924792;29;20059;-69
2021/06/11 07:52:17;;;;;;;1.40;0.70;;;14.50;85.90;;;;;;4928057;29;20023;-70
2021/06/11 07:54:44;;;;;;;1.30;0.60;;;14.50;86.90;;;;;;4926665;29;20106;-69
2021/06/11 07:57:11;;;;;;;0.82;0.35;;;14.40;86.80;;;;;;4927275;29;20028;-69
2021/06/11 07:59:41;;;;;;;0.55;0.32;;;14.40;87.50;;;;;;4907572;29;20747;-70
2021/06/11 08:02:10;;;;;;;1.67;0.73;;;14.30;88.70;;;;;;4925191;29;20513;-70
2021/06/11 08:04:38;;;;;;;2.30;0.63;;;14.20;89.90;;;;;;4925798;29;20036;-72
2021/06/11 08:07:06;;;;;;;1.45;0.88;;;14.10;89.50;;;;;;4924179;29;20992;-69
2021/06/11 08:09:34;;;;;;;1.27;0.70;;;14.00;89.40;;;;;;4926553;29;20027;-72
2021/06/11 08:12:01;;;;;;;1.75;0.88;;;13.80;90.40;;;;;;4927724;29;20035;-71
2021/06/11 08:14:29;;;;;;;2.60;0.95;;;13.70;90.90;;;;;;4923032;29;20047;-70
2021/06/11 08:16:56;;;;;;;2.03;1.08;;;13.70;91.00;;;;;;4927316;29;20031;-72
2021/06/11 08:19:23;;;;;;;2.47;1.08;;;13.60;91.40;;;;;;4927534;29;20179;-72
2021/06/11 08:21:51;;;;;;;2.45;1.20;;;13.50;91.50;;;;;;4929025;29;20035;-71
2021/06/11 08:24:18;;;;;;;3.55;1.38;;;13.40;92.00;;;;;;4928384;29;20084;-70
2021/06/11 08:26:46;;;;;;;2.35;1.02;;;13.30;92.20;;;;;;4928386;29;20046;-72
2021/06/11 08:29:13;;;;;;;3.10;1.65;;;13.20;92.30;;;;;;4927354;29;20495;-69
2021/06/11 08:31:44;;;;;;;3.10;1.45;;;13.10;92.60;;;;;;4928695;29;20036;-72
2021/06/11 08:34:11;;;;;;;2.90;1.30;;;13.00;92.50;;;;;;4929746;29;20028;-71
2021/06/11 08:36:39;;;;;;;3.55;2.40;;;12.80;93.00;;;;;;4929151;29;20036;-72
2021/06/11 08:39:06;;;;;;;5.45;2.70;;;12.70;93.30;;;;;;4927950;29;20028;-72
2021/06/11 08:41:34;;;;;;;5.57;3.00;;;12.60;93.70;;;;;;4925281;29;20043;-73
2021/06/11 08:44:02;;;;;;;11.23;5.00;;;12.50;94.20;;;;;;4923121;29;20032;-70
2021/06/11 08:46:32;;;;;;;9.27;5.45;;;12.40;94.00;;;;;;4929275;29;20044;-71
2021/06/11 08:49:01;;;;;;;8.45;5.07;;;12.30;94.10;;;;;;4927116;29;20020;-71
2021/06/11 08:51:29;;;;;;;4.47;3.10;;;12.30;93.90;;;;;;4929315;29;20031;-71
2021/06/11 08:53:57;;;;;;;6.15;2.92;;;12.30;93.70;;;;;;4928571;29;20534;-69
2021/06/11 08:56:24;;;;;;;4.18;3.03;;;12.20;93.30;;;;;;4927451;29;20301;-71
2021/06/11 08:58:53;;;;;;;4.97;2.75;;;12.20;93.20;;;;;;4925779;29;20427;-72
2021/06/11 09:01:21;;;;;;;4.00;2.72;;;12.20;93.30;;;;;;4929914;29;20060;-70
2021/06/11 09:03:53;;;;;;;4.35;2.95;;;12.20;93.30;;;;;;4925673;29;20024;-70
2021/06/11 09:06:21;;;;;;;5.18;3.00;;;12.20;93.60;;;;;;4920901;29;20039;-71
2021/06/11 09:08:58;;;;;;;4.97;2.85;;;12.20;93.60;;;;;;4928567;29;20028;-71
2021/06/11 09:11:32;;;;;;;4.13;2.55;;;12.20;93.90;;;;;;4924175;29;20035;-70
2021/06/11 09:14:08;;;;;;;5.28;2.95;;;12.10;93.90;;;;;;4923417;29;20028;-70
2021/06/11 09:16:46;;;;;;;3.97;2.72;;;12.00;94.00;;;;;;4927069;29;20027;-73
2021/06/11 09:19:23;;;;;;;3.97;3.10;;;12.00;94.30;;;;;;4925008;29;20046;-72
2021/06/11 09:22:01;;;;;;;5.07;3.45;;;11.90;94.80;;;;;;4924876;29;20419;-72
2021/06/11 09:24:33;;;;;;;6.25;3.35;;;11.70;95.30;;;;;;4925444;29;20074;-72
2021/06/11 09:27:07;;;;;;;8.23;4.72;;;11.60;95.70;;;;;;4922261;29;20051;-71
2021/06/11 09:29:44;;;;;;;13.57;7.72;;;11.50;96.10;;;;;;4919338;29;20095;-72
2021/06/11 09:32:26;;;;;;;17.10;10.05;;;11.50;96.50;;;;;;4923665;29;20046;-72
2021/06/11 09:34:58;;;;;;;13.88;8.30;;;11.50;96.30;;;;;;4925646;29;20016;-71
2021/06/11 09:37:30;;;;;;;11.85;8.00;;;11.40;96.50;;;;;;4924396;29;20068;-71
2021/06/11 09:40:03;;;;;;;7.80;5.97;;;11.30;96.40;;;;;;4928614;29;20098;-70
2021/06/11 09:42:33;;;;;;;9.10;4.82;;;11.20;96.60;;;;;;4926673;29;20063;-71
2021/06/11 09:45:08;;;;;;;4.55;2.85;;;11.10;96.40;;;;;;4925975;29;20028;-70
2021/06/11 09:47:49;;;;;;;4.97;2.60;;;11.10;96.30;;;;;;4923783;29;20114;-71
2021/06/11 09:50:25;;;;;;;3.25;1.95;;;11.10;95.90;;;;;;4930946;29;20035;-69
2021/06/11 09:53:04;;;;;;;3.40;2.00;;;11.10;96.00;;;;;;4925856;29;20187;-69
2021/06/11 09:55:40;;;;;;;4.43;2.13;;;11.10;95.90;;;;;;4921775;29;20032;-72
2021/06/11 09:58:11;;;;;;;2.45;2.03;;;11.10;95.90;;;;;;4909395;29;20031;-69
2021/06/11 10:00:42;;;;;;;4.13;2.50;;;11.10;95.70;;;;;;4927275;29;20052;-70
2021/06/11 10:03:15;;;;;;;4.50;2.47;;;11.10;95.60;;;;;;4925056;29;20107;-71
2021/06/11 10:05:43;;;;;;;5.28;3.38;;;11.10;95.50;;;;;;4923029;29;20059;-71
2021/06/11 10:08:12;;;;;;;7.35;4.05;;;11.10;95.50;;;;;;4924950;29;20028;-69
2021/06/11 10:10:41;;;;;;;5.93;3.47;;;11.00;95.70;;;;;;4920837;29;20031;-71
2021/06/11 10:13:11;;;;;;;6.88;3.92;;;11.00;96.00;;;;;;4925411;29;20374;-71
2021/06/11 10:15:39;;;;;;;6.47;3.70;;;11.00;96.10;;;;;;4925427;29;20024;-71
2021/06/11 10:18:07;;;;;;;6.00;3.33;;;11.00;95.80;;;;;;4907027;29;20617;-70
2021/06/11 10:20:34;;;;;;;7.22;3.35;;;11.00;95.80;;;;;;4928534;29;20054;-70
2021/06/11 10:23:04;;;;;;;5.20;3.83;;;11.00;96.00;;;;;;4927798;29;20059;-70
2021/06/11 10:25:32;;;;;;;7.53;3.78;;;10.80;96.10;;;;;;4924568;29;20047;-71
2021/06/11 10:28:02;;;;;;;6.13;3.90;;;10.80;96.50;;;;;;4926108;29;20394;-72
2021/06/11 10:30:31;;;;;;;4.60;3.47;;;10.80;96.90;;;;;;4926756;29;20491;-72
2021/06/11 10:32:59;;;;;;;5.72;3.55;;;10.70;96.80;;;;;;4924234;29;20127;-70
2021/06/11 10:35:41;;;;;;;6.43;4.35;;;10.60;97.00;;;;;;4929035;29;20038;-70
2021/06/11 10:38:34;;;;;;;7.22;3.90;;;10.60;97.20;;;;;;4926295;29;20055;-71
2021/06/11 10:41:06;;;;;;;9.88;5.78;;;10.40;97.20;;;;;;4923362;29;20091;-70
2021/06/11 10:43:38;;;;;;;13.45;6.40;;;10.20;97.80;;;;;;4928501;29;20036;-69
2021/06/11 10:46:23;;;;;;;14.30;7.47;;;10.10;98.10;;;;;;4928258;29;20107;-72
2021/06/11 10:49:07;;;;;;;13.75;8.60;;;9.90;98.50;;;;;;4924783;29;20027;-73
2021/06/11 10:51:50;;;;;;;15.20;7.90;;;9.90;98.90;;;;;;4927641;29;20110;-72
2021/06/11 10:54:18;;;;;;;13.00;6.82;;;9.90;99.10;;;;;;4929205;29;20106;-72
2021/06/11 10:57:10;;;;;;;7.63;4.00;;;9.90;98.90;;;;;;4921566;29;20040;-71
2021/06/11 10:59:45;;;;;;;5.88;3.38;;;9.90;98.10;;;;;;4927688;29;20118;-74
2021/06/11 11:02:13;;;;;;;5.05;3.00;;;10.10;97.70;;;;;;4926641;29;20353;-72
2021/06/11 11:04:44;;;;;;;4.55;2.65;;;10.20;97.30;;;;;;4927144;29;20074;-72
2021/06/11 11:07:30;;;;;;;5.10;2.83;;;10.40;96.60;;;;;;4926947;29;20114;-72
2021/06/11 11:10:08;;;;;;;6.00;3.10;;;10.40;96.50;;;;;;4922249;29;20032;-73
2021/06/11 11:13:09;;;;;;;6.38;4.10;;;10.50;96.10;;;;;;4926492;29;20047;-68
2021/06/11 11:15:43;;;;;;;8.02;4.20;;;10.60;96.00;;;;;;4924227;29;20175;-72
2021/06/11 11:18:13;;;;;;;7.00;3.97;;;10.50;96.00;;;;;;4924808;29;20031;-72
2021/06/11 11:20:43;;;;;;;7.30;4.35;;;10.60;95.90;;;;;;4920410;29;20024;-71
2021/06/11 11:23:16;;;;;;;5.10;3.30;;;10.50;95.90;;;;;;4925893;29;20254;-70
2021/06/11 11:25:44;;;;;;;4.32;2.63;;;10.50;95.90;;;;;;4924754;29;20059;-70
2021/06/11 11:28:13;;;;;;;4.78;3.13;;;10.50;95.90;;;;;;4925544;29;20055;-70
2021/06/11 11:30:42;;;;;;;5.40;2.97;;;10.50;96.00;;;;;;4926129;29;20122;-69
2021/06/11 11:33:10;;;;;;;3.22;2.60;;;10.40;96.30;;;;;;4925138;29;20035;-69
2021/06/11 11:35:41;;;;;;;6.88;3.53;;;10.20;96.40;;;;;;4925859;29;20051;-69
2021/06/11 11:38:10;;;;;;;5.00;2.65;;;10.10;96.60;;;;;;4926179;29;20024;-69
2021/06/11 11:40:41;;;;;;;3.65;2.20;;;10.00;97.10;;;;;;4927710;29;20134;-69
2021/06/11 11:43:09;;;;;;;5.63;2.70;;;9.90;97.60;;;;;;4924926;29;20040;-69
2021/06/11 11:45:38;;;;;;;5.78;3.15;;;9.80;97.80;;;;;;4928854;29;20059;-69
2021/06/11 11:48:08;;;;;;;5.10;2.67;;;9.70;98.20;;;;;;4927162;29;20363;-69
2021/06/11 11:50:38;;;;;;;5.07;2.90;;;9.60;98.70;;;;;;4922355;29;20032;-70
2021/06/11 11:53:06;;;;;;;4.82;3.60;;;9.50;98.70;;;;;;4914918;29;21222;-70
2021/06/11 11:55:33;;;;;;;3.97;2.90;;;9.40;98.50;;;;;;4929897;29;20024;-68
2021/06/11 11:58:02;;;;;;;5.22;3.30;;;9.20;98.70;;;;;;4932859;29;20430;-68
2021/06/11 12:00:32;;;;;;;6.35;4.07;;;9.20;99.10;;;;;;4928099;29;20036;-69
2021/06/11 12:03:00;;;;;;;4.28;3.05;;;9.10;99.10;;;;;;4926579;29;20031;-69
2021/06/11 12:05:27;;;;;;;6.55;4.10;;;9.10;99.50;;;;;;4927124;29;20030;-69
2021/06/11 12:07:55;;;;;;;5.68;3.72;;;9.00;99.70;;;;;;4924364;29;20484;-69
2021/06/11 12:10:24;;;;;;;7.13;4.07;;;9.00;99.90;;;;;;4926165;29;20463;-68
2021/06/11 12:12:51;;;;;;;7.95;4.60;;;8.90;99.90;;;;;;4923802;29;20874;-69
2021/06/11 12:15:19;;;;;;;8.95;4.53;;;8.90;99.80;;;;;;4926015;29;20383;-70
2021/06/11 12:17:46;;;;;;;5.57;3.50;;;8.90;99.70;;;;;;4930552;29;20035;-69
2021/06/11 12:20:14;;;;;;;5.88;4.47;;;8.80;99.50;;;;;;4931413;29;20147;-70
2021/06/11 12:22:42;;;;;;;7.20;4.72;;;8.80;99.90;;;;;;4916216;29;20043;-70
2021/06/11 12:25:10;;;;;;;5.68;4.55;;;8.80;99.90;;;;;;4925211;29;20079;-69
2021/06/11 12:27:37;;;;;;;7.15;5.32;;;8.70;99.90;;;;;;4925620;29;20046;-68
2021/06/11 12:30:06;;;;;;;8.70;5.35;;;8.80;99.90;;;;;;4924039;29;20762;-70
2021/06/11 12:32:33;;;;;;;9.80;5.70;;;8.70;99.90;;;;;;4910369;29;20771;-69
2021/06/11 12:35:01;;;;;;;8.55;5.35;;;8.70;99.90;;;;;;4926982;29;20059;-71
2021/06/11 12:37:29;;;;;;;9.57;5.90;;;8.60;99.90;;;;;;4924946;29;20090;-70
2021/06/11 12:39:56;;;;;;;9.32;5.88;;;8.50;99.90;;;;;;4927543;29;20111;-71
2021/06/11 12:42:31;;;;;;;8.48;5.72;;;8.40;99.90;;;;;;4923599;29;20099;-72
2021/06/11 12:44:59;;;;;;;8.57;5.57;;;8.40;99.90;;;;;;4928665;29;20036;-72
2021/06/11 12:47:27;;;;;;;9.43;5.85;;;8.30;99.90;;;;;;4926130;29;20130;-71
2021/06/11 12:49:54;;;;;;;7.32;4.72;;;8.20;99.90;;;;;;4925966;29;20028;-69
2021/06/11 12:52:22;;;;;;;10.13;5.97;;;8.20;99.90;;;;;;4925542;29;20128;-70
2021/06/11 12:54:50;;;;;;;13.38;6.68;;;8.20;99.90;;;;;;4926593;29;20672;-70
2021/06/11 12:57:18;;;;;;;12.30;5.68;;;8.20;99.90;;;;;;4926605;29;20035;-71
2021/06/11 12:59:45;;;;;;;9.32;4.57;;;8.20;99.90;;;;;;4928890;29;20442;-71
2021/06/11 13:02:17;;;;;;;6.05;3.97;;;8.20;99.90;;;;;;4908635;29;20040;-72
2021/06/11 13:04:45;;;;;;;6.97;4.20;;;8.10;99.90;;;;;;4925834;29;20025;-72